Date,TemperatureHighF,TemperatureAvgF,TemperatureLowF,DewpointHighF,DewpointAvgF,DewpointLowF,HumidityHigh,HumidityAvg,HumidityLow,PressureMaxIn,PressureMinIn,WindSpeedMaxMPH,WindSpeedAvgMPH,GustSpeedMaxMPH,PrecipitationSumIn
2013-3-1,35,31,26,30,26,19,100,81,64,30.10,29.95,6,3,16,0.01
2013-3-2,36,28,25,21,19,16,77,66,51,30.10,30.05,10,5,23,0.00
2013-3-3,36,27,19,23,18,11,90,71,39,30.09,30.02,8,3,17,0.00
2013-3-4,42,28,15,30,20,-31,100,74,46,30.12,29.99,6,2,13,0.00
2013-3-5,80,30,27,30,28,-17,100,92,65,30.01,29.69,11,5,62,0.22
2013-3-6,37,31,26,31,28,24,100,87,69,30.24,29.81,11,5,24,0.02
2013-3-7,41,33,23,30,27,20,95,79,57,30.39,30.23,6,3,13,0.01
2013-3-8,47,30,15,26,21,9,94,71,42,30.47,30.35,4,1,10,0.00
2013-3-9,44,33,21,34,25,-27,78,72,10,30.35,29.91,5,1,12,0.00
2013-3-10,65,53,42,46,40,34,77,61,48,29.91,29.68,6,2,15,0.02
2013-3-11,55,44,34,51,42,30,100,91,57,29.77,29.56,10,5,27,0.06
2013-3-12,38,32,29,32,27,23,100,81,59,29.96,29.78,10,6,27,0.00
2013-3-13,34,28,25,28,18,11,91,67,39,30.25,29.95,14,8,28,0.00
2013-3-14,44,35,20,30,23,14,93,64,37,30.30,30.10,6,3,14,0.00
2013-3-15,51,38,28,42,34,27,100,89,59,30.11,29.74,6,2,11,0.12
2013-3-16,42,36,27,41,34,23,100,92,78,30.07,29.58,9,4,21,0.01
2013-3-17,38,32,29,24,23,-18,80,71,11,30.17,30.01,10,4,57,0.00
2013-3-18,36,32,28,36,29,-21,100,90,10,30.02,29.56,11,5,27,0.01
2013-3-19,39,28,20,22,15,10,75,59,35,30.04,29.76,15,9,33,0.01
2013-3-20,52,25,19,16,11,-24,77,55,33,30.05,29.96,10,6,24,0.00
2013-3-21,37,24,14,24,12,8,90,61,32,30.00,29.94,9,4,21,0.00
2013-3-22,47,30,14,23,16,12,93,62,29,30.03,29.95,7,2,17,0.00
2013-3-23,44,33,24,26,22,18,86,65,45,30.09,29.95,7,3,17,0.00
2013-3-24,36,31,28,31,25,-16,100,79,59,29.96,29.54,16,5,62,0.00
2013-3-25,38,30,-20,32,28,-20,100,91,64,29.82,29.56,29,6,105,0.04
2013-3-26,41,35,0,31,28,-3,94,71,20,30.21,29.82,10,4,21,0.00
2013-3-27,45,34,0,30,25,20,91,69,44,30.28,29.47,8,2,18,0.00
2013-3-28,55,37,22,32,25,21,100,67,30,30.32,30.24,6,2,15,0.00
2013-3-29,58,41,28,37,26,20,100,61,25,30.30,30.18,8,2,17,0.00
2013-3-30,59,43,25,36,30,23,94,65,39,30.22,29.90,6,2,15,0.00
2013-3-31,64,49,39,46,38,27,100,68,33,29.90,29.67,13,4,29,0.01